Time;durP1;ratioP1;P1;durP2;ratioP2;P2;SDS_P1;SDS_P2;PMS_P1;PMS_P2;Temp;Humidity;BMP_temperature;BMP_pressure;BME280_temperature;BME280_humidity;BME280_pressure;Samples;Min_cycle;Max_cycle;Signal;HPM_P1;HPM_P2
2021/08/11 00:00:17;;;;;;;7.80;7.00;;;;;;;12.40;93.84;101642.88;2107360;28;20074;-61
2021/08/11 00:01:17;;;;;;;6.83;6.23;;;;;;;12.39;93.61;101646.41;2107859;28;20357;-61
2021/08/11 00:02:17;;;;;;;6.93;6.00;;;;;;;12.38;93.99;101649.94;2107895;28;20331;-61
2021/08/11 00:03:18;;;;;;;6.80;6.10;;;;;;;12.36;93.48;101650.00;2107909;28;20099;-62
2021/08/11 00:04:18;;;;;;;6.70;6.20;;;;;;;12.33;93.58;101647.47;2107922;28;20522;-61
2021/08/11 00:05:18;;;;;;;7.03;6.43;;;;;;;12.31;93.62;101647.53;2107209;28;20074;-62
2021/08/11 00:06:19;;;;;;;6.77;6.17;;;;;;;12.32;94.19;101641.38;2107289;28;20062;-62
2021/08/11 00:07:19;;;;;;;9.18;7.03;;;;;;;12.33;93.83;101643.13;2107718;28;20532;-62
2021/08/11 00:08:19;;;;;;;7.50;6.80;;;;;;;12.34;93.80;101644.81;2107697;28;20069;-62
2021/08/11 00:09:20;;;;;;;7.60;6.73;;;;;;;12.36;94.13;101645.59;2107656;28;20453;-63
2021/08/11 00:10:20;;;;;;;11.00;6.93;;;;;;;12.38;94.17;101644.72;2106644;28;20027;-61
2021/08/11 00:11:20;;;;;;;6.83;6.23;;;;;;;12.40;94.07;101638.50;2107802;28;20020;-62
2021/08/11 00:12:21;;;;;;;7.63;4.95;;;;;;;12.41;94.04;101644.56;2107742;28;20492;-63
2021/08/11 00:13:21;;;;;;;7.10;6.50;;;;;;;12.42;94.34;101643.69;2107808;28;20396;-61
2021/08/11 00:14:21;;;;;;;7.40;6.60;;;;;;;12.40;94.13;101643.72;2107120;28;20110;-62
2021/08/11 00:15:21;;;;;;;8.17;6.23;;;;;;;12.40;94.17;101648.09;2107236;28;20452;-62
2021/08/11 00:16:22;;;;;;;8.43;7.63;;;;;;;12.36;94.18;101648.22;2107658;28;20465;-61
2021/08/11 00:17:22;;;;;;;6.93;6.32;;;;;;;12.33;94.02;101650.97;2107123;28;20066;-61
2021/08/11 00:18:22;;;;;;;6.70;6.00;;;;;;;12.33;93.80;101647.47;2107183;28;20024;-61
2021/08/11 00:19:23;;;;;;;7.73;5.90;;;;;;;12.30;93.99;101653.69;2107713;28;20014;-61
2021/08/11 00:20:24;;;;;;;5.63;5.03;;;;;;;12.29;94.06;101641.53;2107794;28;20469;-61
2021/08/11 00:21:25;;;;;;;9.48;6.28;;;;;;;12.30;94.20;101643.22;2107710;28;20028;-61
2021/08/11 00:22:26;;;;;;;9.05;6.15;;;;;;;12.31;94.14;101647.53;2107692;28;20031;-61
2021/08/11 00:23:26;;;;;;;6.82;5.93;;;;;;;12.32;94.59;101646.63;2107585;28;20054;-62
2021/08/11 00:24:26;;;;;;;6.20;5.27;;;;;;;12.33;94.53;101648.34;2107653;28;20031;-63
2021/08/11 00:25:27;;;;;;;7.53;5.77;;;;;;;12.38;94.21;101655.19;2107706;28;20023;-63
2021/08/11 00:26:27;;;;;;;7.43;5.03;;;;;;;12.38;94.65;101649.94;2107738;28;20104;-62
2021/08/11 00:27:27;;;;;;;4.50;3.50;;;;;;;12.39;94.04;101651.63;2107009;28;20103;-61
2021/08/11 00:28:27;;;;;;;5.40;3.70;;;;;;;12.39;94.37;101652.50;2107182;28;20462;-62
2021/08/11 00:29:28;;;;;;;5.60;4.37;;;;;;;12.40;94.33;101642.88;2107629;28;20101;-62
2021/08/11 00:30:28;;;;;;;12.57;7.73;;;;;;;12.44;94.33;101650.56;2107581;28;20063;-62
2021/08/11 00:31:29;;;;;;;7.43;6.20;;;;;;;12.49;94.32;101642.53;2107621;28;20049;-62
2021/08/11 00:32:30;;;;;;;7.35;6.45;;;;;;;12.53;94.46;101654.59;2107620;28;20076;-63
2021/08/11 00:33:31;;;;;;;7.28;5.45;;;;;;;12.55;94.71;101651.91;2107589;28;20086;-62
2021/08/11 00:34:32;;;;;;;8.98;7.85;;;;;;;12.56;94.48;101651.84;2107584;28;20032;-62
2021/08/11 00:35:32;;;;;;;7.73;7.03;;;;;;;12.58;94.87;101652.66;2107625;28;20024;-62
2021/08/11 00:36:32;;;;;;;8.83;6.80;;;;;;;12.60;94.55;101650.81;2107643;28;20023;-62
2021/08/11 00:37:32;;;;;;;8.20;6.47;;;;;;;12.62;94.65;101651.63;2107617;28;20054;-62
2021/08/11 00:38:33;;;;;;;7.37;6.67;;;;;;;12.67;94.85;101653.22;2106966;28;20484;-61
2021/08/11 00:39:33;;;;;;;9.50;7.97;;;;;;;12.72;94.96;101651.25;2106984;28;20480;-60
2021/08/11 00:40:33;;;;;;;6.53;5.30;;;;;;;12.73;94.63;101650.38;2106878;28;20717;-61
2021/08/11 00:41:34;;;;;;;11.50;8.27;;;;;;;12.77;94.68;101651.94;2098632;28;20047;-62
2021/08/11 00:42:34;;;;;;;10.33;7.13;;;;;;;12.77;94.44;101646.72;2106859;28;20057;-61
2021/08/11 00:43:35;;;;;;;6.75;6.03;;;;;;;12.76;94.67;101650.22;2107584;28;20097;-61
2021/08/11 00:44:35;;;;;;;7.40;6.80;;;;;;;12.72;94.41;101651.25;2107625;28;20028;-61
2021/08/11 00:45:36;;;;;;;9.27;4.70;;;;;;;12.68;94.50;101653.16;2107453;28;20081;-61
2021/08/11 00:46:42;;;;;;;9.13;6.40;;;;;;;12.65;94.26;101645.41;2107576;28;20161;-62
2021/08/11 00:47:46;;;;;;;5.55;4.65;;;;;;;12.66;93.96;101647.09;2107638;28;20388;-62
2021/08/11 00:48:47;;;;;;;7.72;6.60;;;;;;;12.63;94.46;101644.63;2106953;28;20027;-62
2021/08/11 00:49:47;;;;;;;7.70;6.25;;;;;;;12.59;94.35;101638.63;2107069;28;20028;-61
2021/08/11 00:50:48;;;;;;;7.07;5.53;;;;;;;12.57;94.04;101645.72;2107613;28;20060;-61
2021/08/11 00:51:48;;;;;;;8.77;6.25;;;;;;;12.54;94.53;101640.59;2107532;28;20066;-61
2021/08/11 00:52:48;;;;;;;9.50;6.27;;;;;;;12.53;94.41;101644.13;2107559;28;20468;-62
2021/08/11 00:53:52;;;;;;;9.93;9.03;;;;;;;12.54;94.08;101647.56;2107562;28;20032;-62
2021/08/11 00:54:55;;;;;;;8.00;6.97;;;;;;;12.52;93.94;101649.41;2106825;28;20028;-62
2021/08/11 00:55:57;;;;;;;6.50;5.75;;;;;;;12.48;94.59;101646.03;2106906;28;20020;-61
2021/08/11 00:56:58;;;;;;;7.07;5.78;;;;;;;12.44;94.31;101644.47;2107463;28;20072;-61
2021/08/11 00:57:59;;;;;;;7.37;6.27;;;;;;;12.45;94.18;101651.38;2107581;28;20028;-61
2021/08/11 00:59:03;;;;;;;9.50;8.57;;;;;;;12.42;94.49;101648.91;2107358;28;20281;-62
2021/08/11 01:00:04;;;;;;;7.30;6.47;;;;;;;12.38;94.61;101644.72;2107340;28;20024;-62
2021/08/11 01:01:05;;;;;;;8.95;5.60;;;;;;;12.35;94.54;101649.13;2107431;28;20028;-61
2021/08/11 01:02:08;;;;;;;7.13;6.30;;;;;;;12.33;94.59;101648.34;2107339;28;20020;-61
2021/08/11 01:03:11;;;;;;;6.55;5.82;;;;;;;12.32;94.67;101651.84;2106703;28;20020;-63
2021/08/11 01:04:13;;;;;;;6.60;5.57;;;;;;;12.30;94.23;101648.44;2106806;28;20051;-61
2021/08/11 01:05:14;;;;;;;7.50;6.30;;;;;;;12.30;94.41;101644.97;2107384;28;20020;-61
2021/08/11 01:06:16;;;;;;;11.35;6.47;;;;;;;12.28;94.63;101642.41;2107291;28;20108;-61
2021/08/11 01:07:16;;;;;;;;;;;;;;;12.31;94.46;101644.06;2107151;28;20019;-62
2021/08/11 01:08:21;;;;;;;8.57;5.35;;;;;;;12.31;94.46;101638.81;2106833;28;19912;-61
2021/08/11 01:09:22;;;;;;;6.85;4.95;;;;;;;12.33;94.43;101645.72;2107128;28;20488;-61
2021/08/11 01:10:22;;;;;;;6.70;4.82;;;;;;;12.30;94.66;101645.84;2107202;28;20027;-60
2021/08/11 01:11:26;;;;;;;7.00;5.33;;;;;;;12.30;94.32;101645.84;2106758;28;20024;-61
2021/08/11 01:12:27;;;;;;;6.63;5.15;;;;;;;12.31;94.47;101644.91;2106670;28;20497;-61
2021/08/11 01:13:28;;;;;;;;;;;;;;;12.30;94.75;101637.97;2107844;28;20024;-61
2021/08/11 01:14:29;;;;;;;8.90;6.77;;;;;;;12.30;94.42;101639.75;2107269;28;19908;-61
2021/08/11 01:15:30;;;;;;;6.85;5.10;;;;;;;12.27;94.63;101638.09;2107249;28;20020;-62
2021/08/11 01:16:30;;;;;;;7.27;5.93;;;;;;;12.28;95.00;101649.44;2107342;28;20031;-61
2021/08/11 01:17:31;;;;;;;7.30;5.57;;;;;;;12.26;94.53;101646.88;2107351;28;20024;-61
2021/08/11 01:18:31;;;;;;;5.95;4.90;;;;;;;12.25;94.78;101650.38;2107305;28;20028;-62
2021/08/11 01:19:31;;;;;;;7.63;5.43;;;;;;;12.25;94.92;101645.13;2107276;28;20032;-61
2021/08/11 01:20:36;;;;;;;7.23;5.33;;;;;;;12.26;94.64;101649.47;2107332;28;20475;-62
2021/08/11 01:21:51;;;;;;;6.70;5.70;;;;;;;12.23;94.66;101642.59;2106371;28;20105;-60
2021/08/11 01:23:07;;;;;;;7.35;5.13;;;;;;;12.23;94.61;101646.97;2106582;28;20509;-61
2021/08/11 01:24:07;;;;;;;8.48;5.55;;;;;;;12.22;94.69;101640.88;2106481;28;20504;-61
2021/08/11 01:25:12;;;;;;;7.40;5.43;;;;;;;12.22;94.76;101640.03;2098201;28;20028;-61
2021/08/11 01:26:37;;;;;;;7.70;5.50;;;;;;;12.22;94.78;101645.28;2098664;28;20062;-62
2021/08/11 01:28:15;;;;;;;9.70;5.90;;;;;;;12.21;94.71;101647.03;2106850;28;20081;-61
2021/08/11 01:29:20;;;;;;;9.52;5.22;;;;;;;12.20;94.56;101641.84;2107099;28;20020;-60
2021/08/11 01:30:27;;;;;;;7.13;5.32;;;;;;;12.19;95.03;101641.00;2106462;28;20481;-61
2021/08/11 01:31:41;;;;;;;7.63;5.63;;;;;;;12.20;94.54;101649.69;2106506;28;20035;-60
2021/08/11 01:33:17;;;;;;;7.20;5.18;;;;;;;12.19;94.77;101642.75;2106738;28;20024;-62
2021/08/11 01:34:31;;;;;;;6.20;5.03;;;;;;;12.17;94.96;101648.03;2107162;28;20496;-61
2021/08/11 01:35:43;;;;;;;6.40;5.70;;;;;;;12.18;94.76;101641.06;2107100;28;20756;-62
2021/08/11 01:36:55;;;;;;;7.05;5.43;;;;;;;12.19;95.15;101642.75;2107137;28;20465;-61
2021/08/11 01:37:59;;;;;;;6.90;5.30;;;;;;;12.18;94.74;101643.69;2107182;28;20038;-62
2021/08/11 01:39:02;;;;;;;7.22;5.07;;;;;;;12.17;94.61;101640.19;2107030;28;20499;-63
2021/08/11 01:40:06;;;;;;;6.30;5.22;;;;;;;12.18;95.02;101635.81;2107077;28;20385;-62
2021/08/11 01:41:09;;;;;;;8.27;7.05;;;;;;;12.18;95.22;101648.91;2106400;28;20115;-62
2021/08/11 01:42:15;;;;;;;7.18;5.70;;;;;;;12.19;94.81;101640.13;2106633;28;20052;-62
2021/08/11 01:43:17;;;;;;;11.57;7.45;;;;;;;12.20;94.84;101653.16;2107036;28;20516;-62
2021/08/11 01:44:21;;;;;;;6.38;5.07;;;;;;;12.21;95.30;101643.53;2106325;28;20027;-61
2021/08/11 01:45:27;;;;;;;9.55;6.85;;;;;;;12.22;94.92;101655.72;2106550;28;20019;-62
2021/08/11 01:46:29;;;;;;;10.40;6.28;;;;;;;12.20;94.94;101644.47;2106979;28;20046;-61
2021/08/11 01:47:36;;;;;;;24.67;6.65;;;;;;;12.20;94.98;101652.31;2106328;28;20106;-63
2021/08/11 01:48:38;;;;;;;12.20;6.47;;;;;;;12.22;95.07;101645.28;2106535;28;20066;-61
2021/08/11 01:49:39;;;;;;;21.45;8.95;;;;;;;12.24;94.97;101648.66;2107009;28;20019;-61
2021/08/11 01:50:43;;;;;;;23.27;8.00;;;;;;;12.28;95.14;101654.66;2106984;28;20024;-62
2021/08/11 01:51:46;;;;;;;28.90;8.98;;;;;;;12.29;95.45;101652.00;2107077;28;20081;-62
2021/08/11 01:52:49;;;;;;;21.30;9.27;;;;;;;12.33;94.96;101653.59;2106342;28;20181;-62
2021/08/11 01:53:50;;;;;;;29.60;8.57;;;;;;;12.35;95.11;101654.34;2106388;28;20499;-62
2021/08/11 01:54:51;;;;;;;50.92;11.15;;;;;;;12.37;94.94;101654.31;2106899;28;20027;-61
2021/08/11 01:55:55;;;;;;;47.95;9.70;;;;;;;12.40;95.45;101655.94;2107020;28;20024;-61
2021/08/11 01:56:56;;;;;;;54.17;10.55;;;;;;;12.39;95.04;101651.63;2106989;28;20542;-61
2021/08/11 01:57:57;;;;;;;;;;;;;;;12.40;95.03;101648.09;2107479;28;20392;-62
2021/08/11 01:58:59;;;;;;;30.83;10.35;;;;;;;12.42;95.40;101643.69;2106239;28;19958;-61
2021/08/11 02:00:01;;;;;;;53.45;11.50;;;;;;;12.44;95.35;101649.69;2106406;28;20023;-61
2021/08/11 02:01:07;;;;;;;35.00;11.15;;;;;;;12.47;95.21;101654.81;2106910;28;20114;-63
2021/08/11 02:02:10;;;;;;;26.73;8.70;;;;;;;12.49;94.90;101653.00;2106986;28;20062;-62
2021/08/11 02:03:11;;;;;;;45.10;10.88;;;;;;;12.51;95.28;101651.16;2106960;28;20070;-62
2021/08/11 02:04:13;;;;;;;29.27;9.48;;;;;;;12.55;95.12;101649.28;2106987;28;20020;-62
2021/08/11 02:05:15;;;;;;;41.97;9.15;;;;;;;12.58;95.56;101647.41;2106951;28;20358;-62
2021/08/11 02:06:15;;;;;;;30.33;9.55;;;;;;;12.64;95.37;101641.09;2106957;28;20020;-63
2021/08/11 02:07:16;;;;;;;40.13;9.73;;;;;;;12.66;95.10;101649.72;2106927;28;20103;-62
2021/08/11 02:08:18;;;;;;;27.95;9.70;;;;;;;12.69;95.16;101644.38;2106886;28;20020;-62
2021/08/11 02:09:19;;;;;;;36.85;12.07;;;;;;;12.73;95.30;101639.88;2106759;28;20484;-62
2021/08/11 02:10:20;;;;;;;63.72;11.10;;;;;;;12.73;95.35;101639.88;2106785;28;20024;-63
2021/08/11 02:11:20;;;;;;;57.88;9.48;;;;;;;12.72;95.19;101648.63;2106743;28;20099;-61
2021/08/11 02:12:21;;;;;;;23.60;9.90;;;;;;;12.71;94.92;101644.31;2106650;28;20100;-62
2021/08/11 02:13:21;;;;;;;32.00;10.60;;;;;;;12.71;95.46;101644.31;2106924;28;20460;-62
2021/08/11 02:14:22;;;;;;;37.22;10.45;;;;;;;12.77;95.29;101641.47;2106865;28;20070;-62
2021/08/11 02:15:23;;;;;;;40.83;11.45;;;;;;;12.82;95.24;101643.91;2106886;28;20020;-64
2021/08/11 02:16:24;;;;;;;69.07;11.18;;;;;;;12.85;95.57;101641.16;2106225;28;20016;-62
2021/08/11 02:17:24;;;;;;;57.17;9.93;;;;;;;12.87;95.32;101640.19;2106325;28;20095;-63
2021/08/11 02:18:25;;;;;;;34.78;9.25;;;;;;;12.88;95.20;101639.28;2106196;28;20020;-62
2021/08/11 02:19:25;;;;;;;44.83;10.27;;;;;;;12.92;95.10;101639.16;2106280;28;20020;-62
2021/08/11 02:20:25;;;;;;;59.73;10.23;;;;;;;12.92;95.11;101632.16;2106868;28;20020;-62
2021/08/11 02:21:26;;;;;;;44.83;10.52;;;;;;;12.92;95.43;101645.25;2106162;28;20097;-62
2021/08/11 02:22:26;;;;;;;31.77;10.23;;;;;;;12.92;95.13;101634.78;2106307;28;20020;-62
2021/08/11 02:23:26;;;;;;;59.60;11.97;;;;;;;12.93;95.18;101636.47;2106020;28;20515;-63
2021/08/11 02:24:27;;;;;;;42.50;10.57;;;;;;;12.91;95.18;101632.22;2106831;28;20042;-62
2021/08/11 02:25:27;;;;;;;44.42;9.75;;;;;;;12.91;95.40;101632.22;2106804;28;20020;-62
2021/08/11 02:26:45;;;;;;;23.88;7.38;;;;;;;12.91;95.22;101634.81;2106840;28;20066;-63
2021/08/11 02:27:51;;;;;;;22.80;7.22;;;;;;;12.92;95.19;101633.91;2106849;28;20465;-62
2021/08/11 02:29:21;;;;;;;17.20;8.07;;;;;;;12.89;95.23;101632.25;2106172;28;20028;-62
2021/08/11 02:30:24;;;;;;;20.50;8.32;;;;;;;12.89;95.43;101640.13;2101676;28;20039;-63
2021/08/11 02:31:46;;;;;;;22.25;8.98;;;;;;;12.87;95.08;101631.50;2106236;28;20020;-62
2021/08/11 02:33:02;;;;;;;22.45;9.75;;;;;;;12.88;95.26;101636.66;2106658;28;20392;-63
2021/08/11 02:34:35;;;;;;;29.30;9.35;;;;;;;12.84;95.19;101622.00;2106598;28;20031;-62
2021/08/11 02:35:46;;;;;;;9.93;6.13;;;;;;;12.83;95.16;101635.97;2066451;28;20049;-63
2021/08/11 02:36:52;;;;;;;15.90;9.60;;;;;;;12.80;94.99;101630.84;2106329;28;20027;-63
2021/08/11 02:38:04;;;;;;;36.92;9.82;;;;;;;12.80;95.41;101630.84;2106748;28;20020;-63
2021/08/11 02:39:11;;;;;;;12.73;8.05;;;;;;;12.76;95.24;101626.66;2106772;28;20055;-63
2021/08/11 02:40:20;;;;;;;31.02;9.95;;;;;;;12.75;94.83;101627.56;2106705;28;20489;-62
2021/08/11 02:41:28;;;;;;;25.38;7.53;;;;;;;12.73;95.23;101624.19;2106766;28;20028;-63
2021/08/11 02:42:38;;;;;;;17.15;8.85;;;;;;;12.72;95.32;101640.78;2106785;28;20073;-62
2021/08/11 02:43:47;;;;;;;11.30;9.38;;;;;;;12.69;95.26;101639.13;2106126;28;20032;-62
2021/08/11 02:44:54;;;;;;;16.55;7.03;;;;;;;12.65;94.82;101634.94;2098701;28;20024;-62
2021/08/11 02:46:02;;;;;;;10.48;9.38;;;;;;;12.62;94.84;101633.28;2106170;28;20031;-63
2021/08/11 02:47:03;;;;;;;18.88;9.65;;;;;;;12.61;95.00;101634.22;2106696;28;20465;-62
2021/08/11 02:48:06;;;;;;;14.05;9.40;;;;;;;12.60;95.40;101640.34;2106205;28;20020;-63
2021/08/11 02:49:11;;;;;;;20.05;9.73;;;;;;;12.60;95.15;101639.50;2097938;28;20032;-62
2021/08/11 02:50:13;;;;;;;23.58;10.65;;;;;;;12.60;94.98;101640.34;2106099;28;20024;-63
2021/08/11 02:51:14;;;;;;;19.45;11.52;;;;;;;12.63;95.38;101631.53;2106679;28;20023;-62
2021/08/11 02:52:17;;;;;;;21.20;8.20;;;;;;;12.64;95.31;101629.75;2106726;28;20023;-62
2021/08/11 02:53:20;;;;;;;26.08;8.80;;;;;;;12.66;95.35;101634.00;2106765;28;20480;-62
2021/08/11 02:54:22;;;;;;;23.73;11.07;;;;;;;12.67;95.30;101640.97;2106003;28;20016;-62
2021/08/11 02:55:23;;;;;;;32.90;11.57;;;;;;;12.69;95.11;101640.91;2106089;28;20055;-62
2021/08/11 02:56:24;;;;;;;27.40;11.85;;;;;;;12.68;95.16;101647.91;2106743;28;20385;-62
2021/08/11 02:57:25;;;;;;;29.07;11.90;;;;;;;12.69;95.48;101649.63;2106736;28;20024;-62
2021/08/11 02:58:25;;;;;;;30.77;9.10;;;;;;;12.72;95.39;101643.41;2106692;28;20020;-62
2021/08/11 02:59:26;;;;;;;38.97;11.95;;;;;;;12.72;95.88;101643.41;2106613;28;20020;-62
2021/08/11 03:00:26;;;;;;;31.07;10.43;;;;;;;12.74;95.28;101637.19;2106761;28;20013;-63
2021/08/11 03:01:30;;;;;;;35.75;9.85;;;;;;;12.77;95.48;101635.38;2106615;28;20035;-62
2021/08/11 03:02:31;;;;;;;49.10;11.18;;;;;;;12.77;95.36;101633.63;2106048;28;20508;-62
2021/08/11 03:03:32;;;;;;;58.83;10.98;;;;;;;12.77;95.75;101641.47;2106089;28;20024;-62
2021/08/11 03:04:32;;;;;;;40.08;9.52;;;;;;;12.78;95.86;101634.44;2106710;28;20017;-62
2021/08/11 03:05:33;;;;;;;56.72;11.88;;;;;;;12.80;95.70;101635.25;2106727;28;20119;-62
2021/08/11 03:06:34;;;;;;;30.60;11.67;;;;;;;12.80;95.29;101636.09;2106695;28;20150;-62
2021/08/11 03:07:34;;;;;;;25.52;10.77;;;;;;;12.79;95.52;101639.63;2106701;28;20028;-61
2021/08/11 03:08:35;;;;;;;41.53;11.83;;;;;;;12.80;95.67;101641.34;2106742;28;20020;-61
2021/08/11 03:09:36;;;;;;;47.13;10.68;;;;;;;12.79;95.43;101650.13;2105755;28;20048;-62
2021/08/11 03:10:39;;;;;;;33.23;10.33;;;;;;;12.80;95.17;101643.94;2105975;28;20020;-61
2021/08/11 03:11:39;;;;;;;43.58;10.60;;;;;;;12.80;95.55;101643.94;2106615;28;20485;-62
2021/08/11 03:12:44;;;;;;;22.08;10.57;;;;;;;12.80;95.51;101638.72;2106737;28;20106;-62
2021/08/11 03:13:45;;;;;;;44.30;11.05;;;;;;;12.80;95.67;101641.34;2106642;28;20046;-62
2021/08/11 03:14:48;;;;;;;40.95;11.00;;;;;;;12.80;95.78;101641.34;2106726;28;20031;-61
2021/08/11 03:15:50;;;;;;;43.67;12.13;;;;;;;12.80;95.79;101638.72;2106647;28;20022;-61
2021/08/11 03:16:50;;;;;;;33.70;11.60;;;;;;;12.79;95.61;101644.88;2106626;28;20479;-61
2021/08/11 03:17:51;;;;;;;35.87;10.33;;;;;;;12.80;95.74;101643.94;2106638;28;20031;-62
2021/08/11 03:18:52;;;;;;;40.27;10.47;;;;;;;12.82;95.80;101639.53;2106666;28;20046;-61
2021/08/11 03:19:52;;;;;;;26.90;10.55;;;;;;;12.82;95.93;101643.91;2106610;28;20492;-62
2021/08/11 03:20:52;;;;;;;31.17;10.43;;;;;;;12.81;95.73;101637.81;2106569;28;20415;-61
2021/08/11 03:21:53;;;;;;;37.50;10.03;;;;;;;12.82;96.01;101639.53;2106604;28;20045;-63
2021/08/11 03:22:53;;;;;;;27.60;11.30;;;;;;;12.82;95.79;101643.91;2106659;28;20036;-62
2021/08/11 03:23:53;;;;;;;38.87;9.57;;;;;;;12.81;95.70;101643.06;2106248;28;20089;-61
2021/08/11 03:24:54;;;;;;;46.23;9.83;;;;;;;12.81;96.00;101643.06;2106617;28;20032;-61
2021/08/11 03:25:54;;;;;;;33.53;9.35;;;;;;;12.82;95.46;101650.00;2106637;28;20024;-62
2021/08/11 03:26:55;;;;;;;27.80;8.13;;;;;;;12.83;95.13;101641.22;2106574;28;20020;-62
2021/08/11 03:27:55;;;;;;;35.80;9.13;;;;;;;12.84;95.41;101652.56;2106725;28;20526;-61
2021/08/11 03:29:00;;;;;;;25.73;8.23;;;;;;;12.82;95.67;101644.75;2106585;28;20032;-62
2021/08/11 03:30:00;;;;;;;36.58;9.07;;;;;;;12.83;95.58;101646.47;2106493;28;20074;-63
2021/08/11 03:31:01;;;;;;;59.30;9.43;;;;;;;12.82;95.82;101639.53;2106587;28;20078;-62
2021/08/11 03:32:01;;;;;;;20.25;7.70;;;;;;;12.82;95.66;101644.75;2106570;28;20055;-62
2021/08/11 03:33:05;;;;;;;42.17;8.45;;;;;;;12.82;95.32;101644.75;2106547;28;20039;-62
2021/08/11 03:34:06;;;;;;;21.85;8.13;;;;;;;12.80;95.86;101646.56;2106533;28;20418;-62
2021/08/11 03:35:06;;;;;;;21.63;8.00;;;;;;;12.81;95.45;101640.44;2106582;28;20028;-62
2021/08/11 03:36:07;;;;;;;18.13;7.10;;;;;;;12.79;95.62;101642.25;2106702;28;20424;-62
2021/08/11 03:37:07;;;;;;;38.63;7.57;;;;;;;12.80;95.72;101635.25;2106575;28;20496;-62
2021/08/11 03:38:08;;;;;;;27.10;8.13;;;;;;;12.79;95.02;101639.63;2106467;28;20020;-63
2021/08/11 03:39:08;;;;;;;24.58;7.72;;;;;;;12.78;95.68;101637.94;2106548;28;20106;-62
2021/08/11 03:40:09;;;;;;;13.90;7.78;;;;;;;12.78;95.63;101634.44;2105799;28;20099;-62
2021/08/11 03:41:09;;;;;;;37.08;8.70;;;;;;;12.75;95.30;101632.81;2097503;28;20489;-62
2021/08/11 03:42:09;;;;;;;21.23;7.90;;;;;;;12.74;95.23;101631.94;2105915;28;20068;-62
2021/08/11 03:43:10;;;;;;;24.37;8.07;;;;;;;12.71;95.58;101631.22;2106738;28;20032;-62
2021/08/11 03:44:10;;;;;;;20.95;8.50;;;;;;;12.69;95.29;101635.69;2106712;28;20381;-61
2021/08/11 03:45:11;;;;;;;18.90;7.57;;;;;;;12.69;95.83;101638.31;2105866;28;20031;-62
2021/08/11 03:46:11;;;;;;;26.00;7.53;;;;;;;12.68;95.73;101636.56;2107498;28;20596;-62
2021/08/11 03:47:11;;;;;;;30.57;8.00;;;;;;;12.69;95.73;101633.06;2108002;28;20127;-62
2021/08/11 03:48:11;;;;;;;27.30;7.97;;;;;;;12.69;95.96;101625.22;2107980;28;20016;-62
2021/08/11 03:49:12;;;;;;;17.93;6.00;;;;;;;12.68;95.71;101626.97;2108003;28;20465;-62
2021/08/11 03:50:18;;;;;;;29.67;8.20;;;;;;;12.67;95.38;101640.13;2107891;28;20081;-61
2021/08/11 03:51:18;;;;;;;35.50;7.97;;;;;;;12.66;95.65;101635.81;2108017;28;20038;-61
2021/08/11 03:52:18;;;;;;;22.37;7.50;;;;;;;12.65;95.89;101636.69;2107949;28;20034;-63
2021/08/11 03:53:18;;;;;;;22.60;8.33;;;;;;;12.64;95.39;101638.47;2107951;28;20016;-62
2021/08/11 03:54:19;;;;;;;28.37;8.33;;;;;;;12.63;95.86;101639.41;2107946;28;20015;-62
2021/08/11 03:55:19;;;;;;;33.93;7.83;;;;;;;12.61;95.38;101642.06;2107917;28;20055;-62
2021/08/11 03:56:19;;;;;;;38.28;8.20;;;;;;;12.64;95.46;101641.09;2107980;28;20016;-61
2021/08/11 03:57:20;;;;;;;15.73;8.60;;;;;;;12.62;95.38;101638.53;2107274;28;20016;-62
2021/08/11 03:58:20;;;;;;;33.77;8.97;;;;;;;12.62;95.96;101638.53;2107415;28;20035;-61
2021/08/11 03:59:20;;;;;;;15.57;5.43;;;;;;;12.60;95.77;101635.09;2107898;28;20026;-61
2021/08/11 04:00:20;;;;;;;27.50;7.40;;;;;;;12.59;95.60;101633.41;2107829;28;20020;-62
2021/08/11 04:01:21;;;;;;;10.07;7.17;;;;;;;12.58;95.32;101642.19;2107877;28;20039;-62
2021/08/11 04:02:21;;;;;;;24.47;7.20;;;;;;;12.59;95.80;101648.28;2107263;28;20141;-61
2021/08/11 04:03:21;;;;;;;29.73;7.87;;;;;;;12.57;95.45;101645.72;2107324;28;20099;-61
2021/08/11 04:04:22;;;;;;;23.30;6.95;;;;;;;12.57;95.62;101642.22;2107888;28;20051;-62
2021/08/11 04:05:22;;;;;;;19.20;7.10;;;;;;;12.57;95.61;101656.19;2107890;28;20427;-62
2021/08/11 04:06:22;;;;;;;27.17;7.77;;;;;;;12.58;95.46;101651.78;2107222;28;20020;-62
2021/08/11 04:07:23;;;;;;;17.70;7.60;;;;;;;12.57;96.27;101655.31;2107274;28;20012;-61
2021/08/11 04:08:23;;;;;;;27.57;7.40;;;;;;;12.58;95.84;101654.41;2107826;28;20016;-63
2021/08/11 04:09:23;;;;;;;27.27;6.40;;;;;;;12.59;95.78;101653.53;2107690;28;20040;-62
2021/08/11 04:10:23;;;;;;;25.80;7.10;;;;;;;12.59;96.37;101656.13;2107120;28;20682;-61
2021/08/11 04:11:24;;;;;;;16.50;7.20;;;;;;;12.60;96.09;101653.44;2107277;28;20496;-62
2021/08/11 04:12:24;;;;;;;20.57;7.07;;;;;;;12.62;96.04;101658.59;2107819;28;20435;-61
2021/08/11 04:13:24;;;;;;;17.70;7.77;;;;;;;12.62;95.83;101659.47;2107131;28;20039;-61
2021/08/11 04:14:25;;;;;;;15.50;7.87;;;;;;;12.62;95.69;101651.63;2107300;28;20016;-61
2021/08/11 04:15:25;;;;;;;16.33;5.97;;;;;;;12.65;95.76;101661.13;2107847;28;20078;-61
2021/08/11 04:16:25;;;;;;;16.70;7.30;;;;;;;12.64;95.79;101659.41;2107833;28;20311;-61
2021/08/11 04:17:26;;;;;;;40.70;8.43;;;;;;;12.65;95.97;101658.50;2107895;28;20069;-61
2021/08/11 04:18:26;;;;;;;17.43;5.63;;;;;;;12.67;95.44;101655.81;2107771;28;20058;-62
2021/08/11 04:19:26;;;;;;;34.50;7.60;;;;;;;12.67;95.28;101658.44;2107741;28;20024;-62
2021/08/11 04:20:26;;;;;;;31.93;8.10;;;;;;;12.69;95.73;101654.03;2107729;28;20058;-61
2021/08/11 04:21:27;;;;;;;35.10;8.40;;;;;;;12.69;95.79;101656.63;2107645;28;20035;-61
2021/08/11 04:22:27;;;;;;;20.23;7.77;;;;;;;12.70;95.97;101655.72;2107813;28;20081;-61
2021/08/11 04:23:27;;;;;;;17.80;7.20;;;;;;;12.70;95.44;101660.94;2107768;28;20469;-61
2021/08/11 04:24:27;;;;;;;30.43;7.33;;;;;;;12.71;95.68;101657.41;2107518;28;20062;-61
2021/08/11 04:25:28;;;;;;;15.80;7.33;;;;;;;12.71;95.57;101652.19;2107760;28;20059;-61
2021/08/11 04:26:28;;;;;;;31.43;8.20;;;;;;;12.72;95.39;101651.25;2107701;28;20051;-61
2021/08/11 04:27:28;;;;;;;46.00;9.63;;;;;;;12.74;95.71;101652.91;2107719;28;20479;-61
2021/08/11 04:28:29;;;;;;;43.33;8.57;;;;;;;12.74;95.49;101647.66;2107056;28;20482;-61
2021/08/11 04:29:29;;;;;;;42.47;8.10;;;;;;;12.76;95.91;101644.97;2107037;28;20024;-61
2021/08/11 04:30:30;;;;;;;55.70;6.93;;;;;;;12.74;95.74;101641.59;2107596;28;20095;-61
2021/08/11 04:31:30;;;;;;;19.17;6.43;;;;;;;12.75;96.14;101646.78;2107651;28;20497;-61
2021/08/11 04:32:34;;;;;;;52.83;8.13;;;;;;;12.76;95.74;101647.59;2107706;28;20043;-61
2021/08/11 04:33:34;;;;;;;26.08;6.93;;;;;;;12.77;95.63;101651.94;2107621;28;20089;-62
2021/08/11 04:34:34;;;;;;;31.77;6.87;;;;;;;12.78;95.67;101653.66;2107657;28;20465;-60
2021/08/11 04:35:38;;;;;;;19.70;8.03;;;;;;;12.80;95.52;101654.44;2107025;28;20420;-60
2021/08/11 04:36:38;;;;;;;45.85;7.97;;;;;;;12.80;95.41;101651.81;2107011;28;20021;-60
2021/08/11 04:37:40;;;;;;;21.60;6.93;;;;;;;12.81;95.49;101648.31;2107610;28;20024;-60
2021/08/11 04:38:40;;;;;;;;;;;;;;;12.86;95.91;101655.97;2107399;28;20043;-60
2021/08/11 04:39:40;;;;;;;20.27;6.53;;;;;;;12.87;95.81;101657.69;2106976;28;20273;-61
2021/08/11 04:40:40;;;;;;;26.20;7.13;;;;;;;12.86;96.06;101654.19;2107594;28;20016;-62
2021/08/11 04:41:41;;;;;;;15.43;7.30;;;;;;;12.88;95.52;101654.16;2107605;28;20024;-60
2021/08/11 04:42:41;;;;;;;32.77;6.37;;;;;;;12.88;95.53;101652.38;2107552;28;20031;-62
2021/08/11 04:43:41;;;;;;;11.30;5.93;;;;;;;12.87;95.38;101645.41;2107599;28;20059;-61
2021/08/11 04:44:42;;;;;;;37.33;6.37;;;;;;;12.89;95.97;101653.22;2106918;28;20024;-61
2021/08/11 04:45:43;;;;;;;21.87;7.63;;;;;;;12.91;95.57;101658.41;2106954;28;20069;-61
2021/08/11 04:46:43;;;;;;;25.00;8.77;;;;;;;12.93;95.70;101653.97;2107598;28;20389;-61
2021/08/11 04:47:43;;;;;;;21.30;7.20;;;;;;;12.96;95.67;101661.69;2107536;28;20024;-60